Tiempo atmosférico en la estación meteorológica de Oroz-Betelu/Orotz-Betelu, Navarra (635 m.)



Fecha
DESCASC
Temp. máxima en grados centígrados (hora)
DESCASC
Temp. mínima en grados centígrados (hora)
DESCASC
Temp. media en grados centígrados
DESCASC
Racha de viento máxima en m/sg (hora)
DESCASC
Velocidad máxima media en intervalos de 10 minutos(hora)
DESCASC
Precipitaciones diarias en mm
DESCASC
Precipitaciones de 00:00 a 06:00 en mm
DESCASC
Precipitaciones de 06:00 a 12:00 en mm
DESCASC
Precipitaciones de 12:00 a 18:00 en mm
DESCASC
Precipitaciones de 18:00 a 24:00 en mm
DESCASC
10-07-2020 21.2 (14:30) 16.1 (23:00) 18.7 13.89 (18:30) 8.61 (18:20) 0 0 0 0 0
09-07-2020 32.7 (16:10) 14.1 (06:30) 23.4 9.17 (22:00) 6.11 (18:10) 3.4 0 0 0 3.4
08-07-2020 32.6 (15:40) 9.6 (06:40) 21.1 9.72 (18:00) 7.5 (18:00) 0 0 0 0 0
07-07-2020 22.1 (16:20) 12.8 (01:40) 17.5 14.44 (00:50) 9.17 (19:50) 0 0 0 0 0
06-07-2020 21.7 (12:30) 13.1 (00:00) 17.4 17.78 (23:30) 8.61 (13:00) 0 0 0 0 0
05-07-2020 26.5 (13:40) 12.1 (00:00) 19.3 14.72 (18:10) 8.33 (17:50) 0 0 0 0 0
04-07-2020 23.5 (17:10) 12 (00:00) 17.8 12.5 (03:40) 6.67 (11:10) 0 0 0 0 0
03-07-2020 18.5 (13:20) 12.6 (05:00) 15.6 13.61 (03:00) 8.89 (17:40) 0 0 0 0 0
02-07-2020 20.8 (14:50) 13.8 (00:00) 17.3 14.44 (22:30) 9.17 (18:40) 0 0 0 0 0
01-07-2020 27.3 (13:20) 15.9 (00:00) 21.6 12.78 (21:30) 7.5 (14:50) 0 0 0 0 0
30-06-2020 31.3 (18:10) 10.4 (00:00) 20.8 7.78 (19:40) 5.83 (19:00) 3.2 0 0 0 3.2
29-06-2020 22 (13:50) 15.4 (00:00) 18.7 11.67 (16:50) 7.5 (18:30) 0 0 0 0 0
28-06-2020 27.9 (15:50) 16.7 (00:00) 22.3 10.28 (19:00) 6.94 (19:10) 0 0 0 0 0
27-06-2020 27.8 (17:10) 11.4 (00:00) 19.6 9.17 (19:20) 6.11 (19:50) 0 0 0 0 0
26-06-2020 28.5 (14:30) 12.6 (00:00) 20.6 11.67 (21:20) 6.67 (21:20) 1.4 0 0 0 1.4
25-06-2020 30.9 (15:50) 13 (00:00) 21.9 13.61 (20:10) 6.11 (20:10) 10 0 0 0 10
24-06-2020 32.1 (16:40) 12.5 (00:00) 22.3 8.61 (19:50) 5.56 (12:40) 0 0 0 0 0
23-06-2020 32.2 (18:20) 10.6 (00:00) 21.4 10.56 (00:40) 5 (13:20) 0 0 0 0 0
22-06-2020 23 (16:30) 14.4 (00:00) 18.7 13.89 (19:40) 8.33 (03:30) 0 0 0 0 0
21-06-2020 23.8 (13:00) 10.3 (00:00) 17 12.22 (23:20) 7.5 (19:40) 0 0 0 0 0
20-06-2020 25.8 (15:10) 8.9 (00:00) 17.3 9.44 (23:40) 6.39 (23:40) 0 0 0 0 0
19-06-2020 24.4 (15:10) 6.6 (00:00) 15.5 9.72 (19:10) 7.78 (19:10) 0 0 0 0 0
18-06-2020 19.3 (15:40) 7.7 (00:00) 13.5 10 (20:00) 6.11 (20:00) 3.8 0 3.8 0 0
17-06-2020 17.8 (16:40) 9.3 (00:00) 13.5 8.61 (18:40) 6.11 (18:40) 0 0 0 0 0
16-06-2020 19.5 (13:30) 11.7 (00:00) 15.6 9.17 (15:50) 5 (17:30) 2 0 0 1.8 0.2
15-06-2020 20.8 (14:50) 10.8 (00:00) 15.8 10.83 (23:00) 6.39 (23:00) 0 0 0 0 0

Gráficas

Temp. máximas Temp. mínimas Temp. medias Precipitaciones Rachas de viento máximas Velocidades máximas media en intervalos de 10 minutos

Datos horarios

Fecha y hora oficial Temperatura (ºC) Velocidad del viento (km/h) Dirección del viento Racha (km/h) Dirección de racha Precipitación (mm) Presión (hPa) Tendencia (hPa) Humedad (%)
2020-07-14 23:00:00 13.7 17 Nordeste 27 Nordeste 0 -- -- 68
2020-07-14 22:00:00 14.4 8 Nordeste 31 Nordeste 0 -- -- 68
2020-07-14 21:00:00 16 16 Nordeste 45 Nordeste 0 -- -- 58
2020-07-14 20:00:00 17.4 21 Nordeste 42 Nordeste 0 -- -- 58
2020-07-14 19:00:00 18.3 17 Nordeste 42 Nordeste 0 -- -- 60
2020-07-14 18:00:00 19.6 21 Nordeste 44 Nordeste 0 -- -- 59
2020-07-14 17:00:00 18.9 14 Nordeste 35 Sudeste 0 -- -- 65
2020-07-14 16:00:00 18.5 25 Este 45 Nordeste 0 -- -- 63
2020-07-14 15:00:00 19.2 24 Nordeste 41 Norte 0 -- -- 62
2020-07-14 14:00:00 18.2 24 Nordeste 45 Nordeste 0 -- -- 65
2020-07-14 13:00:00 19.5 21 Nordeste 37 Nordeste 0 -- -- 59
2020-07-14 12:00:00 19.8 15 Sudeste 30 Este 0 -- -- 57
2020-07-14 11:00:00 19.1 18 Sudeste 34 Sudeste 0 -- -- 58
2020-07-14 10:00:00 17.9 14 Este 38 Nordeste 0 -- -- 58
2020-07-14 09:00:00 16 21 Nordeste 36 Nordeste 0 -- -- 66
2020-07-14 08:00:00 14 14 Nordeste 32 Este 0 -- -- 71
2020-07-14 07:00:00 13.5 9 Este 23 Norte 0 -- -- 74
2020-07-14 06:00:00 13.9 10 Nordeste 35 Norte 0 -- -- 71
2020-07-14 05:00:00 14.2 13 Nordeste 27 Nordeste 0 -- -- 72
2020-07-14 04:00:00 13.8 6 Sudeste 33 Nordeste 0 -- -- 68
2020-07-14 03:00:00 14.8 18 Nordeste 37 Nordeste 0 -- -- 67
2020-07-14 02:00:00 15 10 Norte 31 Nordeste 0 -- -- 64
2020-07-14 01:00:00 15.3 14 Nordeste 33 Nordeste 0 -- -- 65
2020-07-14 00:00:00 15.3 12 Norte 32 Norte 0 -- -- 69
2020-07-13 23:00:00 16 15 Norte 36 Norte 0 -- -- 68
2020-07-13 22:00:00 17 15 Nordeste 40 Nordeste 0 -- -- 58
2020-07-13 21:00:00 18.4 17 Nordeste 33 Nordeste 0 -- -- 53
2020-07-13 20:00:00 20 21 Nordeste 40 Nordeste 0 -- -- 50
2020-07-13 19:00:00 20.9 24 Nordeste 46 Norte 0 -- -- 46
2020-07-13 18:00:00 21.4 26 Nordeste 48 Nordeste 0 -- -- 48
2020-07-13 17:00:00 21.9 27 Nordeste 45 Nordeste 0 -- -- 51
2020-07-13 16:00:00 22.3 27 Nordeste 54 Nordeste 0 -- -- 53
2020-07-13 15:00:00 22.3 24 Nordeste 46 Nordeste 0 -- -- 50
2020-07-13 14:00:00 22 26 Nordeste 45 Nordeste 0 -- -- 53
2020-07-13 13:00:00 22 28 Nordeste 47 Norte 0 -- -- 47
2020-07-13 12:00:00 22.2 23 Nordeste 42 Nordeste 0 -- -- 48
2020-07-13 11:00:00 21.4 25 Nordeste 49 Nordeste 0 -- -- 48
2020-07-13 10:00:00 20.6 14 Nordeste 35 Nordeste 0 -- -- 57
2020-07-13 09:00:00 20 5 Este 18 Sudeste 0 -- -- 67
2020-07-13 08:00:00 17 6 Este 27 Este 0 -- -- 75
2020-07-13 07:00:00 16.8 12 Este 27 Sudeste 0 -- -- 76
2020-07-13 06:00:00 17.3 8 Este 37 Este 0 -- -- 75
2020-07-13 05:00:00 17.6 14 Este 37 Este 0 -- -- 78
2020-07-13 04:00:00 17.6 17 Este 31 Este 0 -- -- 81
2020-07-13 03:00:00 17.6 10 Nordeste 33 Este 0 -- -- 84
2020-07-13 02:00:00 18.4 23 Este 39 Este 0 -- -- 84
2020-07-13 01:00:00 18.7 23 Nordeste 35 Nordeste 0.2 -- -- 87
2020-07-13 00:00:00 18.7 8 Este 23 Sudeste 1 -- -- 90
2020-07-12 23:00:00 19.1 11 Este 30 Nordeste 6.2 -- -- 88
2020-07-12 22:00:00 20.5 12 Este 28 Nordeste 0 -- -- 80
2020-07-12 21:00:00 20.9 18 Nordeste 30 Nordeste 0 -- -- 79
2020-07-12 20:00:00 23.1 15 Nordeste 24 Nordeste 0 -- -- 74
2020-07-12 19:00:00 25.8 10 Nordeste 15 Nordeste 0 -- -- 59
2020-07-12 18:00:00 25.4 9 Nordeste 17 Nordeste 0 -- -- 62
2020-07-12 17:00:00 23.2 12 Nordeste 17 Nordeste 0 -- -- 69
2020-07-12 16:00:00 21.9 0 Calma 10 Sudoeste 0 -- -- 77
2020-07-12 15:00:00 19.9 11 Norte 29 Nordeste 0 -- -- 84
2020-07-12 14:00:00 18.3 13 Nordeste 26 Norte 0 -- -- 88
2020-07-12 13:00:00 16.9 3 Este 18 Noroeste 0.8 -- -- 93
2020-07-12 12:00:00 16.9 3 Este 19 Nordeste 0 -- -- 88
2020-07-12 11:00:00 16.2 12 Norte 41 Este 1.8 -- -- 89
2020-07-12 10:00:00 16.2 23 Este 37 Sudeste 0.8 -- -- 88
2020-07-12 09:00:00 15.6 0 Calma 7 Sudeste 0 -- -- 89
2020-07-12 08:00:00 14.1 3 Sudeste 8 Este 0 -- -- 92
2020-07-12 07:00:00 13.8 0 Calma 5 Nordeste 0 -- -- 92
2020-07-12 06:00:00 14.1 0 Calma 9 Norte 0 -- -- 90
2020-07-12 05:00:00 15 0 Calma 12 Norte 0 -- -- 86
2020-07-12 04:00:00 16.2 2 Sudeste 14 Nordeste 0 -- -- 82
2020-07-12 03:00:00 17.5 3 Este 20 Nordeste 0 -- -- 76
2020-07-12 02:00:00 17.9 6 Este 34 Nordeste 0 -- -- 75
2020-07-12 01:00:00 18.1 13 Este 30 Sudeste 0 -- -- 74
2020-07-12 00:00:00 18.1 11 Este 32 Este 0 -- -- 74
2020-07-11 23:00:00 18.3 10 Nordeste 30 Nordeste 0 -- -- 74
2020-07-11 22:00:00 18.8 10 Este 32 Este 0 -- -- 71
2020-07-11 21:00:00 19.9 19 Nordeste 45 Nordeste 0 -- -- 67
2020-07-11 20:00:00 21.1 27 Nordeste 45 Nordeste 0 -- -- 64
2020-07-11 19:00:00 21.7 32 Nordeste 41 Nordeste 0 -- -- 62
2020-07-11 18:00:00 22.5 27 Nordeste 40 Nordeste 0 -- -- 61
2020-07-11 17:00:00 22.9 26 Nordeste 38 Este 0 -- -- 60
2020-07-11 16:00:00 23 23 Nordeste 39 Nordeste 0 -- -- 59
2020-07-11 15:00:00 22.6 23 Nordeste 36 Nordeste 0 -- -- 60
2020-07-11 14:00:00 21.4 24 Nordeste 45 Nordeste 0 -- -- 61
2020-07-11 13:00:00 20.3 25 Nordeste 37 Nordeste 0 -- -- 63
2020-07-11 12:00:00 18.9 19 Nordeste 34 Nordeste 0 -- -- 68
2020-07-11 11:00:00 18.6 12 Este 26 Nordeste 0 -- -- 67
2020-07-11 10:00:00 17.2 10 Este 33 Nordeste 0 -- -- 71
2020-07-11 09:00:00 15.2 17 Nordeste 42 Norte 0 -- -- 81
2020-07-11 08:00:00 15 15 Este 37 Nordeste 0 -- -- 83
2020-07-11 07:00:00 14.9 9 Nordeste 34 Nordeste 0 -- -- 83
2020-07-11 06:00:00 15 14 Nordeste 39 Nordeste 0 -- -- 82
2020-07-11 05:00:00 15.1 10 Nordeste 24 Nordeste 0 -- -- 82
2020-07-11 04:00:00 15.4 12 Nordeste 35 Nordeste 0 -- -- 82
2020-07-11 03:00:00 15.6 10 Nordeste 39 Nordeste 0 -- -- 81
2020-07-11 02:00:00 15.6 7 Nordeste 28 Nordeste 0 -- -- 80
2020-07-11 01:00:00 15.7 12 Este 38 Nordeste 0 -- -- 81
2020-07-11 00:00:00 16.1 10 Nordeste 41 Nordeste 0 -- -- 81
2020-07-10 23:00:00 16.1 18 Nordeste 35 Nordeste 0 -- -- 80
2020-07-10 22:00:00 16.5 10 Este 33 Nordeste 0 -- -- 77
2020-07-10 21:00:00 16.9 13 Nordeste 35 Nordeste 0 -- -- 76
2020-07-10 20:00:00 17.8 20 Nordeste 39 Nordeste 0 -- -- 73
2020-07-10 19:00:00 18.4 25 Nordeste 50 Nordeste 0 -- -- 71
2020-07-10 18:00:00 19.5 31 Nordeste 45 Nordeste 0 -- -- 70
2020-07-10 17:00:00 20.4 25 Nordeste 46 Nordeste 0 -- -- 67
2020-07-10 16:00:00 20.6 22 Nordeste 36 Nordeste 0 -- -- 69
2020-07-10 15:00:00 20 24 Nordeste 33 Nordeste 0 -- -- 71
2020-07-10 14:00:00 20.5 22 Nordeste 35 Nordeste 0 -- -- 71
2020-07-10 13:00:00 20.8 22 Este 34 Nordeste 0 -- -- 71
2020-07-10 12:00:00 20.9 11 Nordeste 31 Nordeste 0 -- -- 71
2020-07-10 11:00:00 18.8 12 Nordeste 33 Nordeste 0 -- -- 79
2020-07-10 10:00:00 17.8 15 Nordeste 30 Nordeste 0 -- -- 82
2020-07-10 09:00:00 17.9 16 Nordeste 28 Nordeste 0 -- -- 84
2020-07-10 08:00:00 17.6 7 Este 22 Nordeste 0 -- -- 84
2020-07-10 07:00:00 17.3 9 Este 25 Nordeste 0 -- -- 85
2020-07-10 06:00:00 17.6 8 Este 28 Nordeste 0 -- -- 84
2020-07-10 05:00:00 17.8 8 Este 29 Nordeste 0 -- -- 84
2020-07-10 04:00:00 18.2 12 Este 32 Nordeste 0 -- -- 83
2020-07-10 03:00:00 18.5 6 Este 22 Nordeste 0 -- -- 85
2020-07-10 02:00:00 18.9 12 Este 21 Nordeste 0 -- -- 86
2020-07-10 01:00:00 19 3 Nordeste 23 Este 0 -- -- 86
2020-07-10 00:00:00 19.6 12 Este 28 Sudeste 0 -- -- 84
2020-07-09 23:00:00 20.1 15 Este 28 Este 0 -- -- 85
2020-07-09 22:00:00 20.9 16 Nordeste 33 Nordeste 0 -- -- 85
2020-07-09 21:00:00 21.7 14 Nordeste 28 Nordeste 0 -- -- 85
2020-07-09 20:00:00 21.6 19 Nordeste 29 Nordeste 0 -- -- 86
2020-07-09 19:00:00 21.5 19 Nordeste 33 Nordeste 3.4 -- -- 87
2020-07-09 18:00:00 25.2 18 Nordeste 30 Nordeste 0 -- -- 69
2020-07-09 17:00:00 29.2 19 Nordeste 27 Nordeste 0 -- -- 55
2020-07-09 16:00:00 32.2 5 Este 15 Noroeste 0 -- -- 39
2020-07-09 15:00:00 31.2 7 Noroeste 23 Norte 0 -- -- 42
2020-07-09 14:00:00 29.5 9 Sudoeste 17 Oeste 0 -- -- 47
2020-07-09 13:00:00 28.2 9 Sudoeste 20 Sudoeste 0 -- -- 51
2020-07-09 12:00:00 27.4 5 Sur 16 Sudoeste 0 -- -- 56
2020-07-09 11:00:00 23.5 3 Este 9 Nordeste 0 -- -- 67
2020-07-09 10:00:00 20.4 0 Calma 5 Sudeste 0 -- -- 75
2020-07-09 09:00:00 17 3 Este 9 Este 0 -- -- 88
2020-07-09 08:00:00 15.3 0 Calma 13 Nordeste 0 -- -- 94
2020-07-09 07:00:00 14.4 5 Nordeste 10 Norte 0 -- -- 96
2020-07-09 06:00:00 14.4 0 Calma 8 Nordeste 0 -- -- 94
2020-07-09 05:00:00 14.9 0 Calma 5 Oeste 0 -- -- 94
2020-07-09 04:00:00 15.4 0 Calma 3 Sudeste 0 -- -- 93
2020-07-09 03:00:00 16 0 Calma 6 Noroeste 0 -- -- 91
2020-07-09 02:00:00 16.7 0 Calma 6 Noroeste 0 -- -- 89
2020-07-09 01:00:00 17.8 0 Calma 6 Este 0 -- -- 87
2020-07-09 00:00:00 18.9 0 Calma 13 Nordeste 0 -- -- 83
2020-07-08 23:00:00 20.8 3 Nordeste 23 Nordeste 0 -- -- 76
2020-07-08 22:00:00 22.4 16 Nordeste 25 Nordeste 0 -- -- 70
2020-07-08 21:00:00 23.9 12 Nordeste 26 Nordeste 0 -- -- 67
2020-07-08 20:00:00 25.3 21 Nordeste 31 Nordeste 0 -- -- 62
2020-07-08 19:00:00 26.7 19 Nordeste 35 Nordeste 0 -- -- 60
2020-07-08 18:00:00 28.1 27 Nordeste 35 Nordeste 0 -- -- 56
2020-07-08 17:00:00 30.2 13 Nordeste 23 Nordeste 0 -- -- 48
2020-07-08 16:00:00 31.8 9 Nordeste 18 Norte 0 -- -- 34
2020-07-08 15:00:00 31.2 4 Norte 13 Noroeste 0 -- -- 31
2020-07-08 14:00:00 29.5 4 Noroeste 24 Oeste 0 -- -- 39
2020-07-08 13:00:00 27.3 18 Oeste 28 Sudoeste 0 -- -- 44
2020-07-08 12:00:00 24.9 4 Sudoeste 8 Sudoeste 0 -- -- 52
2020-07-08 11:00:00 21.2 4 Sur 7 Sur 0 -- -- 60
2020-07-08 10:00:00 17.7 3 Sudeste 8 Este 0 -- -- 67
2020-07-08 09:00:00 13.6 4 Este 8 Este 0 -- -- 80
2020-07-08 08:00:00 10 0 Calma 4 Nordeste 0 -- -- 93
2020-07-08 07:00:00 9.7 0 Calma 9 Norte 0 -- -- 94
2020-07-08 06:00:00 10.1 0 Calma 5 Este 0 -- -- 92
2020-07-08 05:00:00 10.4 0 Calma 4 Norte 0 -- -- 92
2020-07-08 04:00:00 11.2 2 Sudoeste 6 Norte 0 -- -- 89
2020-07-08 03:00:00 12.3 3 Sur 9 Oeste 0 -- -- 82
2020-07-08 02:00:00 14 3 Oeste 14 Norte 0 -- -- 77
2020-07-08 01:00:00 16.5 5 Este 26 Nordeste 0 -- -- 71
2020-07-08 00:00:00 16.7 13 Este 35 Nordeste 0 -- -- 73
2020-07-07 23:00:00 17.3 14 Nordeste 34 Nordeste 0 -- -- 72
2020-07-07 22:00:00 17.9 9 Este 33 Nordeste 0 -- -- 71
2020-07-07 21:00:00 19.1 18 Nordeste 45 Nordeste 0 -- -- 67
2020-07-07 20:00:00 20.2 32 Nordeste 51 Nordeste 0 -- -- 63
2020-07-07 19:00:00 21.1 30 Nordeste 41 Nordeste 0 -- -- 60
2020-07-07 18:00:00 22 25 Nordeste 42 Nordeste 0 -- -- 57
2020-07-07 17:00:00 21.9 29 Nordeste 42 Nordeste 0 -- -- 57
2020-07-07 16:00:00 21.6 25 Nordeste 40 Nordeste 0 -- -- 57
2020-07-07 15:00:00 20.9 28 Nordeste 42 Nordeste 0 -- -- 57
2020-07-07 14:00:00 21 27 Nordeste 40 Nordeste 0 -- -- 54
2020-07-07 13:00:00 19.7 26 Nordeste 44 Nordeste 0 -- -- 57
2020-07-07 12:00:00 18.6 15 Nordeste 45 Nordeste 0 -- -- 61
2020-07-07 11:00:00 18 12 Este 50 Nordeste 0 -- -- 64
2020-07-07 10:00:00 16.2 22 Nordeste 46 Nordeste 0 -- -- 70
2020-07-07 09:00:00 13.6 15 Este 48 Sudeste 0 -- -- 79
2020-07-07 08:00:00 13.1 23 Este 47 Sudeste 0 -- -- 81
2020-07-07 07:00:00 12.9 16 Este 35 Sudeste 0 -- -- 82
2020-07-07 06:00:00 12.9 8 Nordeste 34 Nordeste 0 -- -- 81
2020-07-07 05:00:00 13 9 Nordeste 33 Nordeste 0 -- -- 82
2020-07-07 04:00:00 12.9 15 Este 44 Este 0 -- -- 83
2020-07-07 03:00:00 12.8 16 Sudeste 39 Nordeste 0 -- -- 82
2020-07-07 02:00:00 12.8 17 Nordeste 43 Nordeste 0 -- -- 82
2020-07-07 01:00:00 13 23 Nordeste 52 Norte 0 -- -- 82
2020-07-07 00:00:00 13.1 19 Nordeste 64 Nordeste 0 -- -- 83
2020-07-06 23:00:00 13.9 23 Nordeste 48 Nordeste 0 -- -- 81
2020-07-06 22:00:00 14.6 24 Nordeste 46 Nordeste 0 -- -- 80
2020-07-06 21:00:00 15.6 17 Nordeste 39 Nordeste 0 -- -- 76
2020-07-06 20:00:00 16 24 Nordeste 51 Nordeste 0 -- -- 78
2020-07-06 19:00:00 17.4 18 Nordeste 39 Norte 0 -- -- 75
2020-07-06 18:00:00 18.2 16 Norte 46 Nordeste 0 -- -- 73
2020-07-06 17:00:00 19.1 22 Nordeste 39 Norte 0 -- -- 69
2020-07-06 16:00:00 19.5 24 Nordeste 48 Nordeste 0 -- -- 71
2020-07-06 15:00:00 20.8 27 Nordeste 47 Nordeste 0 -- -- 66
2020-07-06 14:00:00 20.6 25 Nordeste 48 Nordeste 0 -- -- 67
2020-07-06 13:00:00 21 31 Nordeste 50 Nordeste 0 -- -- 68
2020-07-06 12:00:00 20.7 22 Nordeste 54 Norte 0 -- -- 69
2020-07-06 11:00:00 21.1 11 Nordeste 40 Nordeste 0 -- -- 68
2020-07-06 10:00:00 19.6 8 Nordeste 34 Nordeste 0 -- -- 73
2020-07-06 09:00:00 18.3 14 Nordeste 34 Norte 0 -- -- 78
2020-07-06 08:00:00 18 12 Nordeste 27 Nordeste 0 -- -- 80
2020-07-06 07:00:00 17.2 7 Este 33 Norte 0 -- -- 82
2020-07-06 06:00:00 16.8 9 Nordeste 36 Este 0 -- -- 80
2020-07-06 05:00:00 16.6 17 Este 37 Sudeste 0 -- -- 81
2020-07-06 04:00:00 16.9 15 Este 44 Sudeste 0 -- -- 80
2020-07-06 03:00:00 17.6 26 Sudeste 43 Sudeste 0 -- -- 75
2020-07-06 02:00:00 17.7 24 Sudeste 43 Este 0 -- -- 77
2020-07-06 01:00:00 18.6 19 Este 44 Sudeste 0 -- -- 73
2020-07-06 00:00:00 19.1 14 Este 47 Sudeste 0 -- -- 74
2020-07-05 23:00:00 19.4 25 Sudeste 51 Sudeste 0 -- -- 73
2020-07-05 22:00:00 19.5 24 Este 42 Nordeste 0 -- -- 73
2020-07-05 21:00:00 20.9 22 Nordeste 47 Nordeste 0 -- -- 71
2020-07-05 20:00:00 22.4 18 Nordeste 46 Nordeste 0 -- -- 66
2020-07-05 19:00:00 23.5 22 Nordeste 53 Nordeste 0 -- -- 63
2020-07-05 18:00:00 24.1 28 Nordeste 51 Nordeste 0 -- -- 61
2020-07-05 17:00:00 24.8 28 Nordeste 46 Nordeste 0 -- -- 57
2020-07-05 16:00:00 25.6 22 Nordeste 41 Nordeste 0 -- -- 56
2020-07-05 15:00:00 26.4 20 Nordeste 32 Nordeste 0 -- -- 51
2020-07-05 14:00:00 26.4 18 Nordeste 32 Nordeste 0 -- -- 48
2020-07-05 13:00:00 26.1 17 Nordeste 26 Nordeste 0 -- -- 47
2020-07-05 12:00:00 25.2 15 Nordeste 25 Sudeste 0 -- -- 47
2020-07-05 11:00:00 24 11 Este 28 Este 0 -- -- 46
2020-07-05 10:00:00 22.7 17 Sudeste 36 Sudeste 0 -- -- 44
2020-07-05 09:00:00 20.8 22 Este 40 Este 0 -- -- 49
2020-07-05 08:00:00 15 9 Nordeste 19 Este 0 -- -- 73
2020-07-05 07:00:00 12.2 3 Sur 8 Sudoeste 0 -- -- 83
2020-07-05 06:00:00 12.8 3 Este 9 Este 0 -- -- 80
2020-07-05 05:00:00 14 4 Nordeste 14 Nordeste 0 -- -- 75
2020-07-05 04:00:00 16.8 9 Nordeste 33 Este 0 -- -- 62
2020-07-05 03:00:00 16 12 Nordeste 29 Sudeste 0 -- -- 68
2020-07-05 02:00:00 17.1 13 Este 30 Este 0 -- -- 67
2020-07-05 01:00:00 15.5 9 Nordeste 18 Nordeste 0 -- -- 78
2020-07-05 00:00:00 16.4 8 Nordeste 26 Norte 0 -- -- 75
2020-07-04 23:00:00 17.1 8 Nordeste 28 Norte 0 -- -- 73
2020-07-04 22:00:00 17.9 8 Este 37 Nordeste 0 -- -- 70
2020-07-04 21:00:00 19.3 17 Nordeste 34 Nordeste 0 -- -- 63
2020-07-04 20:00:00 20.9 15 Nordeste 35 Nordeste 0 -- -- 59
2020-07-04 19:00:00 22 15 Nordeste 37 Nordeste 0 -- -- 54
2020-07-04 18:00:00 23 18 Nordeste 32 Nordeste 0 -- -- 49
2020-07-04 17:00:00 23.4 18 Nordeste 32 Nordeste 0 -- -- 40
2020-07-04 16:00:00 22.5 17 Nordeste 36 Este 0 -- -- 44
2020-07-04 15:00:00 21.3 23 Nordeste 41 Nordeste 0 -- -- 49
2020-07-04 14:00:00 21.4 11 Nordeste 39 Nordeste 0 -- -- 49
2020-07-04 13:00:00 20.9 19 Nordeste 33 Nordeste 0 -- -- 51
2020-07-04 12:00:00 19.1 18 Nordeste 35 Nordeste 0 -- -- 52
2020-07-04 11:00:00 18.4 19 Nordeste 36 Nordeste 0 -- -- 56
2020-07-04 10:00:00 16.9 14 Nordeste 31 Nordeste 0 -- -- 59
2020-07-04 09:00:00 14.9 18 Nordeste 33 Nordeste 0 -- -- 69
2020-07-04 08:00:00 12.7 17 Nordeste 29 Nordeste 0 -- -- 79
2020-07-04 07:00:00 12.2 13 Nordeste 23 Nordeste 0 -- -- 80
2020-07-04 06:00:00 12.3 8 Nordeste 31 Nordeste 0 -- -- 81
2020-07-04 05:00:00 13.1 11 Nordeste 39 Nordeste 0 -- -- 79
2020-07-04 04:00:00 13.4 14 Nordeste 45 Norte 0 -- -- 78
2020-07-04 03:00:00 13.4 10 Nordeste 37 Este 0 -- -- 77
2020-07-04 02:00:00 13.6 6 Este 43 Este 0 -- -- 78
2020-07-04 01:00:00 13.4 12 Nordeste 35 Nordeste 0 -- -- 78
2020-07-04 00:00:00 13.7 18 Nordeste 41 Nordeste 0 -- -- 77
2020-07-03 23:00:00 14 16 Nordeste 43 Nordeste 0 -- -- 75
2020-07-03 22:00:00 14.4 24 Nordeste 38 Norte 0 -- -- 74
2020-07-03 21:00:00 15 18 Nordeste 45 Nordeste 0 -- -- 72
2020-07-03 20:00:00 15.9 17 Nordeste 40 Nordeste 0 -- -- 68
2020-07-03 19:00:00 16.3 27 Nordeste 44 Nordeste 0 -- -- 65
2020-07-03 18:00:00 17.8 29 Nordeste 44 Nordeste 0 -- -- 60
2020-07-03 17:00:00 18.3 25 Nordeste 44 Nordeste 0 -- -- 58
2020-07-03 16:00:00 18.1 28 Nordeste 43 Nordeste 0 -- -- 58
2020-07-03 15:00:00 17.8 21 Nordeste 44 Nordeste 0 -- -- 60
2020-07-03 14:00:00 17.1 25 Nordeste 42 Nordeste 0 -- -- 61
2020-07-03 13:00:00 16.6 19 Nordeste 40 Este 0 -- -- 65
2020-07-03 12:00:00 16.4 23 Nordeste 36 Nordeste 0 -- -- 63
2020-07-03 11:00:00 14.6 17 Nordeste 31 Nordeste 0 -- -- 74
2020-07-03 10:00:00 13.2 17 Nordeste 33 Norte 0 -- -- 79
2020-07-03 09:00:00 13.2 16 Nordeste 35 Nordeste 0 -- -- 75
2020-07-03 08:00:00 13.3 13 Nordeste 39 Norte 0 -- -- 72
2020-07-03 07:00:00 13 17 Nordeste 32 Nordeste 0 -- -- 75
2020-07-03 06:00:00 12.7 10 Nordeste 26 Nordeste 0 -- -- 75
2020-07-03 05:00:00 12.6 15 Nordeste 44 Este 0 -- -- 75
2020-07-03 04:00:00 13.1 17 Nordeste 33 Norte 0 -- -- 74
2020-07-03 03:00:00 13.4 24 Nordeste 49 Nordeste 0 -- -- 73
2020-07-03 02:00:00 13.7 23 Nordeste 48 Nordeste 0 -- -- 75
2020-07-03 01:00:00 14 22 Nordeste 49 Nordeste 0 -- -- 75
2020-07-03 00:00:00 13.8 26 Nordeste 44 Nordeste 0 -- -- 81
2020-07-02 23:00:00 14.3 26 Nordeste 52 Nordeste 0 -- -- 80
2020-07-02 22:00:00 14.3 23 Nordeste 46 Nordeste 0 -- -- 75
2020-07-02 21:00:00 14.6 23 Nordeste 45 Nordeste 0 -- -- 78
2020-07-02 20:00:00 15.5 26 Nordeste 51 Nordeste 0 -- -- 76
2020-07-02 19:00:00 17 30 Nordeste 49 Nordeste 0 -- -- 71
2020-07-02 18:00:00 17.9 22 Nordeste 49 Nordeste 0 -- -- 69
2020-07-02 17:00:00 18.1 28 Nordeste 45 Nordeste 0 -- -- 69
2020-07-02 16:00:00 20 25 Nordeste 40 Nordeste 0 -- -- 67
2020-07-02 15:00:00 20.6 23 Nordeste 33 Nordeste 0 -- -- 65
2020-07-02 14:00:00 20.1 22 Nordeste 34 Nordeste 0 -- -- 69
2020-07-02 13:00:00 19.6 19 Nordeste 31 Nordeste 0 -- -- 70
2020-07-02 12:00:00 18.5 17 Nordeste 26 Nordeste 0 -- -- 74
2020-07-02 11:00:00 18.8 10 Este 33 Nordeste 0 -- -- 72
2020-07-02 10:00:00 17.1 5 Este 21 Nordeste 0 -- -- 76
2020-07-02 09:00:00 15.9 6 Este 33 Nordeste 0 -- -- 80
2020-07-02 08:00:00 15.8 12 Nordeste 39 Nordeste 0 -- -- 81
2020-07-02 07:00:00 15.9 10 Nordeste 27 Nordeste 0 -- -- 82
2020-07-02 06:00:00 16.5 11 Nordeste 30 Este 0 -- -- 82
2020-07-02 05:00:00 16.6 16 Nordeste 39 Nordeste 0 -- -- 84
2020-07-02 04:00:00 16.8 6 Nordeste 33 Nordeste 0 -- -- 82
2020-07-02 03:00:00 16.9 8 Nordeste 28 Este 0 -- -- 82
2020-07-02 02:00:00 16.9 11 Nordeste 28 Nordeste 0 -- -- 81
2020-07-02 01:00:00 17 11 Este 31 Este 0 -- -- 81
2020-07-02 00:00:00 17.3 14 Este 36 Nordeste 0 -- -- 82
2020-07-01 23:00:00 17.2 8 Este 31 Nordeste 0 -- -- 84
2020-07-01 22:00:00 17 18 Nordeste 46 Nordeste 0 -- -- 87
2020-07-01 21:00:00 17.8 18 Este 45 Nordeste 0 -- -- 85
2020-07-01 20:00:00 20.1 21 Nordeste 42 Nordeste 0 -- -- 75
2020-07-01 19:00:00 19.8 14 Este 39 Nordeste 0 -- -- 77
2020-07-01 18:00:00 20.3 21 Nordeste 32 Nordeste 0 -- -- 76
2020-07-01 17:00:00 21.5 17 Nordeste 36 Nordeste 0 -- -- 74
2020-07-01 16:00:00 21.5 24 Nordeste 38 Nordeste 0 -- -- 75
2020-07-01 15:00:00 23.8 22 Nordeste 39 Nordeste 0 -- -- 69
2020-07-01 14:00:00 24.3 22 Nordeste 33 Nordeste 0 -- -- 70
2020-07-01 13:00:00 26.8 17 Sudoeste 25 Sudoeste 0 -- -- 58
2020-07-01 12:00:00 25.6 14 Sudoeste 22 Sudoeste 0 -- -- 64
2020-07-01 11:00:00 23.7 4 Sur 7 Noroeste 0 -- -- 75
2020-07-01 10:00:00 20.4 3 Sur 8 Sudeste 0 -- -- 84
2020-07-01 09:00:00 17.7 3 Sudeste 6 Este 0 -- -- 98
2020-07-01 08:00:00 16.1 2 Este 10 Nordeste 0 -- -- 97
2020-07-01 07:00:00 15.9 4 Nordeste 10 Nordeste 0 -- -- 97
2020-07-01 06:00:00 16.1 4 Este 8 Norte 0 -- -- 97
2020-07-01 05:00:00 16.2 2 Norte 9 Nordeste 0 -- -- 97
2020-07-01 04:00:00 16.2 0 Calma 8 Norte 0 -- -- 96
2020-07-01 03:00:00 16.7 2 Nordeste 10 Nordeste 0 -- -- 96
2020-07-01 02:00:00 17.3 5 Este 18 Nordeste 0 -- -- 95
2020-07-01 01:00:00 17.9 5 Este 9 Este 0 -- -- 95
2020-07-01 00:00:00 18.8 5 Este 12 Este 0 -- -- 93
2020-06-30 23:00:00 19.6 4 Oeste 23 Nordeste 0 -- -- 90
2020-06-30 22:00:00 20.1 6 Nordeste 16 Nordeste 0 -- -- 92
2020-06-30 21:00:00 21.4 10 Este 27 Nordeste 3.2 -- -- 87
2020-06-30 20:00:00 25.4 20 Nordeste 28 Nordeste 0 -- -- 65
2020-06-30 19:00:00 27.4 21 Nordeste 28 Nordeste 0 -- -- 60
2020-06-30 18:00:00 31 8 Oeste 22 Oeste 0 -- -- 45
2020-06-30 17:00:00 30.7 12 Sudoeste 20 Sudoeste 0 -- -- 46
2020-06-30 16:00:00 29.7 12 Oeste 23 Sudoeste 0 -- -- 50
2020-06-30 15:00:00 28.4 15 Sudoeste 27 Sudoeste 0 -- -- 54
2020-06-30 14:00:00 27.1 15 Sudoeste 25 Oeste 0 -- -- 57
2020-06-30 13:00:00 26 15 Sudoeste 23 Sudoeste 0 -- -- 61
2020-06-30 12:00:00 24.1 12 Sudoeste 21 Oeste 0 -- -- 64
2020-06-30 11:00:00 21.8 3 Sur 8 Sudoeste 0 -- -- 70
2020-06-30 10:00:00 18.2 2 Este 6 Sudeste 0 -- -- 69
2020-06-30 09:00:00 15.1 4 Este 6 Sudeste 0 -- -- 81
2020-06-30 08:00:00 11 0 Calma 5 Nordeste 0 -- -- 98
2020-06-30 07:00:00 10.4 0 Calma 3 Sudoeste 0 -- -- 95
2020-06-30 06:00:00 10.8 0 Calma 5 Oeste 0 -- -- 94
2020-06-30 05:00:00 11.3 2 Oeste 6 Sudoeste 0 -- -- 94
2020-06-30 04:00:00 12 3 Oeste 10 Norte 0 -- -- 92
2020-06-30 03:00:00 12.4 2 Norte 9 Nordeste 0 -- -- 91
2020-06-30 02:00:00 13.5 3 Oeste 13 Nordeste 0 -- -- 87
2020-06-30 01:00:00 14.8 8 Nordeste 22 Nordeste 0 -- -- 86
2020-06-30 00:00:00 15.4 14 Nordeste 33 Nordeste 0 -- -- 84
2020-06-29 23:00:00 15.6 10 Nordeste 30 Este 0 -- -- 84
2020-06-29 22:00:00 15.9 19 Nordeste 34 Nordeste 0 -- -- 82
2020-06-29 21:00:00 16.8 27 Nordeste 39 Nordeste 0 -- -- 79
2020-06-29 20:00:00 17.6 23 Nordeste 40 Nordeste 0 -- -- 76
2020-06-29 19:00:00 18.9 23 Nordeste 39 Nordeste 0 -- -- 73
2020-06-29 18:00:00 20.3 23 Nordeste 38 Nordeste 0 -- -- 68
2020-06-29 17:00:00 20.7 23 Nordeste 42 Nordeste 0 -- -- 69
2020-06-29 16:00:00 20.9 27 Nordeste 38 Nordeste 0 -- -- 69
2020-06-29 15:00:00 21.4 23 Nordeste 36 Nordeste 0 -- -- 69
2020-06-29 14:00:00 22 20 Nordeste 30 Nordeste 0 -- -- 66
2020-06-29 13:00:00 21.4 18 Nordeste 28 Nordeste 0 -- -- 67
2020-06-29 12:00:00 20.3 18 Nordeste 32 Nordeste 0 -- -- 68
2020-06-29 11:00:00 19.9 16 Nordeste 28 Nordeste 0 -- -- 71
2020-06-29 10:00:00 19.3 13 Nordeste 36 Nordeste 0 -- -- 74
2020-06-29 09:00:00 17.6 10 Nordeste 24 Nordeste 0 -- -- 80
2020-06-29 08:00:00 17 12 Nordeste 24 Nordeste 0 -- -- 83
2020-06-29 07:00:00 16.7 7 Nordeste 33 Nordeste 0 -- -- 83
2020-06-29 06:00:00 16.9 9 Nordeste 26 Nordeste 0 -- -- 81
2020-06-29 05:00:00 16.8 11 Nordeste 25 Este 0 -- -- 80
2020-06-29 04:00:00 16.9 9 Este 19 Este 0 -- -- 80
2020-06-29 03:00:00 17 11 Este 25 Sudeste 0 -- -- 80
2020-06-29 02:00:00 16.9 11 Este 21 Este 0 -- -- 80
2020-06-29 01:00:00 17.3 12 Nordeste 27 Nordeste 0 -- -- 78
2020-06-29 00:00:00 18 13 Nordeste 28 Nordeste 0 -- -- 75
2020-06-28 23:00:00 18.5 12 Nordeste 28 Nordeste 0 -- -- 75
2020-06-28 22:00:00 19 10 Nordeste 35 Nordeste 0 -- -- 76
2020-06-28 21:00:00 20.2 18 Nordeste 34 Nordeste 0 -- -- 71
2020-06-28 20:00:00 22 20 Nordeste 33 Nordeste 0 -- -- 63
2020-06-28 19:00:00 22.5 23 Nordeste 37 Este 0 -- -- 65
2020-06-28 18:00:00 24.3 21 Este 31 Este 0 -- -- 61
2020-06-28 17:00:00 27.5 12 Norte 24 Noroeste 0 -- -- 52
2020-06-28 16:00:00 27.7 18 Noroeste 31 Noroeste 0 -- -- 49
2020-06-28 15:00:00 27.5 17 Sudoeste 29 Sudoeste 0 -- -- 51
2020-06-28 14:00:00 26.8 15 Sudoeste 27 Sudoeste 0 -- -- 50
2020-06-28 13:00:00 25.9 13 Sudoeste 24 Sudoeste 0 -- -- 57
2020-06-28 12:00:00 24.8 13 Oeste 23 Sudoeste 0 -- -- 63
2020-06-28 11:00:00 22.4 5 Sudeste 14 Norte 0 -- -- 67
2020-06-28 10:00:00 19.7 13 Nordeste 19 Nordeste 0 -- -- 76
2020-06-28 09:00:00 18.4 10 Nordeste 19 Nordeste 0 -- -- 81
2020-06-28 08:00:00 16.9 9 Nordeste 23 Este 0 -- -- 85
2020-06-28 07:00:00 16.7 7 Este 23 Nordeste 0 -- -- 86
2020-06-28 06:00:00 16.7 12 Nordeste 25 Nordeste 0 -- -- 85
2020-06-28 05:00:00 17.2 12 Este 25 Nordeste 0 -- -- 82
2020-06-28 04:00:00 17.6 11 Este 24 Nordeste 0 -- -- 81
2020-06-28 03:00:00 18.1 13 Este 28 Nordeste 0 -- -- 80
2020-06-28 02:00:00 18.4 12 Nordeste 26 Nordeste 0 -- -- 78
2020-06-28 01:00:00 18.8 17 Este 26 Este 0 -- -- 80
2020-06-28 00:00:00 19.3 13 Este 28 Este 0 -- -- 81
2020-06-27 23:00:00 19.8 11 Este 23 Este 0 -- -- 79
2020-06-27 22:00:00 20.3 10 Este 23 Nordeste 0 -- -- 77
2020-06-27 21:00:00 21.7 17 Nordeste 30 Nordeste 0 -- -- 71
2020-06-27 20:00:00 22.9 21 Nordeste 33 Nordeste 0 -- -- 67
2020-06-27 19:00:00 24.1 17 Nordeste 33 Nordeste 0 -- -- 65
2020-06-27 18:00:00 24.3 17 Nordeste 26 Nordeste 0 -- -- 64
2020-06-27 17:00:00 27.6 13 Noroeste 21 Noroeste 0 -- -- 48
2020-06-27 16:00:00 26.8 4 Sudeste 12 Norte 0 -- -- 47
2020-06-27 15:00:00 26.7 6 Noroeste 21 Sudoeste 0 -- -- 48
2020-06-27 14:00:00 25.8 9 Sudoeste 20 Sudoeste 0 -- -- 51
2020-06-27 13:00:00 25.1 8 Sudoeste 23 Oeste 0 -- -- 51
2020-06-27 12:00:00 23.8 14 Oeste 22 Oeste 0 -- -- 54
2020-06-27 11:00:00 21.8 5 Sudeste 9 Sur 0 -- -- 65
2020-06-27 10:00:00 17.8 3 Sudeste 5 Sudeste 0 -- -- 81
2020-06-27 09:00:00 14.4 2 Este 7 Este 0 -- -- 97
2020-06-27 08:00:00 12.1 3 Nordeste 9 Norte 0 -- -- 98
2020-06-27 07:00:00 11.9 4 Nordeste 10 Norte 0 -- -- 98
2020-06-27 06:00:00 11.7 4 Este 6 Este 0 -- -- 97
2020-06-27 05:00:00 11.8 0 Calma 4 Este 0 -- -- 98
2020-06-27 04:00:00 11.9 0 Calma 4 Nordeste 0 -- -- 97
2020-06-27 03:00:00 12.4 0 Calma 4 Norte 0 -- -- 96
2020-06-27 02:00:00 12.8 2 Nordeste 4 Este 0 -- -- 96
2020-06-27 01:00:00 13.8 0 Calma 5 Noroeste 0 -- -- 95
2020-06-27 00:00:00 14.3 2 Este 11 Este 0.2 -- -- 95
2020-06-26 23:00:00 15.1 8 Este 15 Nordeste 0 -- -- 92
2020-06-26 22:00:00 17.3 4 Este 42 Sur 1.2 -- -- 85
2020-06-26 21:00:00 22.3 4 Este 15 Nordeste 0 -- -- 68
2020-06-26 20:00:00 22.8 6 Este 19 Nordeste 0 -- -- 65
2020-06-26 19:00:00 24.8 6 Noroeste 22 Oeste 0 -- -- 59
2020-06-26 18:00:00 26.7 13 Sudoeste 32 Sudoeste 0 -- -- 40
2020-06-26 17:00:00 26.8 16 Sudoeste 31 Sudoeste 0 -- -- 43
2020-06-26 16:00:00 27.9 8 Sudoeste 32 Sudoeste 0 -- -- 42
2020-06-26 15:00:00 27.9 14 Oeste 40 Sudoeste 0 -- -- 39
2020-06-26 14:00:00 28 12 Oeste 33 Sudoeste 0 -- -- 39
2020-06-26 13:00:00 26.2 15 Sudoeste 32 Sudoeste 0 -- -- 43
2020-06-26 12:00:00 25.4 18 Sudoeste 41 Sudoeste 0 -- -- 45
2020-06-26 11:00:00 22.2 3 Sudoeste 14 Nordeste 0 -- -- 69
2020-06-26 10:00:00 18.9 4 Este 8 Sudeste 0 -- -- 86
2020-06-26 09:00:00 14.7 0 Calma 4 Sudeste 0 -- -- 100
2020-06-26 08:00:00 13.1 0 Calma 5 Este 0 -- -- 99
2020-06-26 07:00:00 12.8 0 Calma 3 Este 0 -- -- 98
2020-06-26 06:00:00 12.7 0 Calma 4 Nordeste 0 -- -- 98
2020-06-26 05:00:00 12.9 0 Calma 6 Este 0 -- -- 97
2020-06-26 04:00:00 13.5 3 Este 6 Este 0 -- -- 97
2020-06-26 03:00:00 14.1 0 Calma 6 Este 0 -- -- 96
2020-06-26 02:00:00 14.8 2 Sudeste 8 Nordeste 0 -- -- 95
2020-06-26 01:00:00 15.2 0 Calma 23 Nordeste 0 -- -- 94
2020-06-26 00:00:00 15.7 12 Nordeste 24 Norte 0.4 -- -- 94
2020-06-25 23:00:00 15.3 3 Sudeste 19 Nordeste 0 -- -- 94
2020-06-25 22:00:00 15.3 0 Calma 26 Nordeste 0.6 -- -- 94
2020-06-25 21:00:00 15.5 14 Nordeste 49 Norte 4.4 -- -- 92
2020-06-25 20:00:00 18.7 18 Nordeste 39 Norte 4.4 -- -- 89
2020-06-25 19:00:00 23 11 Este 29 Nordeste 0.2 -- -- 79
2020-06-25 18:00:00 26.2 18 Nordeste 30 Nordeste 0 -- -- 65
2020-06-25 17:00:00 27.4 5 Este 16 Este 0 -- -- 58
2020-06-25 16:00:00 29.8 8 Sudeste 17 Sudoeste 0 -- -- 43
2020-06-25 15:00:00 29.1 9 Sudoeste 32 Sudoeste 0 -- -- 42
2020-06-25 14:00:00 30.1 17 Sudoeste 30 Oeste 0 -- -- 39
2020-06-25 13:00:00 29.7 9 Oeste 17 Oeste 0 -- -- 42
2020-06-25 12:00:00 27.6 4 Sudeste 10 Sur 0 -- -- 48
2020-06-25 11:00:00 24.2 4 Sudeste 7 Sudeste 0 -- -- 59
2020-06-25 10:00:00 20 3 Sudeste 8 Sudeste 0 -- -- 68
2020-06-25 09:00:00 16.7 6 Este 13 Este 0 -- -- 80
2020-06-25 08:00:00 13.7 3 Nordeste 7 Este 0 -- -- 91
2020-06-25 07:00:00 13.4 2 Este 8 Este 0 -- -- 92
2020-06-25 06:00:00 13 3 Nordeste 8 Este 0 -- -- 92
2020-06-25 05:00:00 13.4 3 Nordeste 6 Nordeste 0 -- -- 90
2020-06-25 04:00:00 14.5 3 Este 8 Este 0 -- -- 88
2020-06-25 03:00:00 15.5 4 Este 6 Este 0 -- -- 83
2020-06-25 02:00:00 16.3 0 Calma 8 Este 0 -- -- 81
2020-06-25 01:00:00 16.6 2 Nordeste 8 Nordeste 0 -- -- 80
2020-06-25 00:00:00 17.7 5 Nordeste 8 Este 0 -- -- 73
2020-06-24 23:00:00 20.2 2 Nordeste 12 Noroeste 0 -- -- 63
2020-06-24 22:00:00 22.5 15 Nordeste 23 Nordeste 0 -- -- 52
2020-06-24 21:00:00 25.9 16 Oeste 30 Oeste 0 -- -- 41
2020-06-24 20:00:00 28.5 9 Sur 31 Sudeste 0 -- -- 41
2020-06-24 19:00:00 31.9 4 Sudoeste 20 Sudoeste 0 -- -- 34
2020-06-24 18:00:00 31.8 8 Oeste 24 Sudoeste 0 -- -- 38
2020-06-24 17:00:00 31.2 14 Oeste 22 Sudoeste 0 -- -- 44
2020-06-24 16:00:00 30.5 10 Sudoeste 24 Sudoeste 0 -- -- 44
2020-06-24 15:00:00 31.3 15 Oeste 24 Oeste 0 -- -- 41
2020-06-24 14:00:00 30.1 14 Oeste 24 Sudoeste 0 -- -- 43
2020-06-24 13:00:00 28.5 19 Oeste 30 Sudoeste 0 -- -- 46
2020-06-24 12:00:00 27.8 12 Sudoeste 26 Oeste 0 -- -- 52
2020-06-24 11:00:00 25.5 3 Sur 8 Sudoeste 0 -- -- 61
2020-06-24 10:00:00 22.1 3 Sudeste 6 Este 0 -- -- 70
2020-06-24 09:00:00 17.9 3 Este 7 Este 0 -- -- 83
2020-06-24 08:00:00 13.8 4 Este 8 Este 0 -- -- 99
2020-06-24 07:00:00 12.9 2 Este 6 Este 0 -- -- 97
2020-06-24 06:00:00 13.2 4 Este 8 Este 0 -- -- 96
2020-06-24 05:00:00 13.9 2 Este 8 Este 0 -- -- 95
2020-06-24 04:00:00 14.4 4 Sudeste 9 Este 0 -- -- 95
2020-06-24 03:00:00 14.9 5 Este 13 Este 0 -- -- 95
2020-06-24 02:00:00 15.4 2 Este 8 Este 0 -- -- 92
2020-06-24 01:00:00 16.4 3 Este 6 Este 0 -- -- 90
2020-06-24 00:00:00 17.3 0 Calma 6 Este 0 -- -- 87
2020-06-23 23:00:00 19 0 Calma 5 Este 0 -- -- 80
2020-06-23 22:00:00 21.6 0 Calma 6 Este 0 -- -- 74
2020-06-23 21:00:00 25.2 3 Norte 6 Este 0 -- -- 61
2020-06-23 20:00:00 28.7 3 Nordeste 14 Nordeste 0 -- -- 49
2020-06-23 19:00:00 31.9 8 Sudoeste 17 Oeste 0 -- -- 33
2020-06-23 18:00:00 31.8 5 Oeste 18 Sudoeste 0 -- -- 32
2020-06-23 17:00:00 31.4 11 Sudoeste 22 Oeste 0 -- -- 33
2020-06-23 16:00:00 30.5 15 Sudoeste 25 Sudoeste 0 -- -- 36
2020-06-23 15:00:00 29.9 14 Sudoeste 24 Sudoeste 0 -- -- 37
2020-06-23 14:00:00 28.7 14 Oeste 28 Oeste 0 -- -- 44
2020-06-23 13:00:00 27.3 15 Sudoeste 21 Oeste 0 -- -- 49
2020-06-23 12:00:00 25.8 8 Sudoeste 17 Oeste 0 -- -- 53
2020-06-23 11:00:00 22.6 3 Sudoeste 6 Sur 0 -- -- 61
2020-06-23 10:00:00 19 2 Sudeste 8 Sudeste 0 -- -- 71
2020-06-23 09:00:00 15.1 5 Sudeste 10 Este 0 -- -- 79
2020-06-23 08:00:00 11.3 3 Este 6 Este 0 -- -- 95
2020-06-23 07:00:00 10.7 2 Este 6 Norte 0 -- -- 93
2020-06-23 06:00:00 11.1 0 Calma 5 Norte 0 -- -- 93
2020-06-23 05:00:00 11.6 0 Calma 4 Sudoeste 0 -- -- 91
2020-06-23 04:00:00 12.7 0 Calma 7 Sur 0 -- -- 88
2020-06-23 03:00:00 14.1 2 Sudeste 8 Sudoeste 0 -- -- 84
2020-06-23 02:00:00 16.2 2 Sudoeste 27 Nordeste 0 -- -- 77
2020-06-23 01:00:00 17.4 12 Este 38 Nordeste 0 -- -- 74
2020-06-23 00:00:00 17.2 16 Nordeste 40 Este 0 -- -- 79
2020-06-22 23:00:00 17.9 22 Este 41 Sudeste 0 -- -- 76
2020-06-22 22:00:00 18.2 8 Este 35 Nordeste 0 -- -- 73
2020-06-22 21:00:00 19.9 9 Este 35 Sudeste 0 -- -- 67
2020-06-22 20:00:00 21 18 Sudeste 50 Sudeste 0 -- -- 64
2020-06-22 19:00:00 21.7 19 Nordeste 44 Nordeste 0 -- -- 62
2020-06-22 18:00:00 22.4 26 Nordeste 38 Nordeste 0 -- -- 59
2020-06-22 17:00:00 22.9 14 Nordeste 37 Nordeste 0 -- -- 58
2020-06-22 16:00:00 22.4 27 Nordeste 39 Nordeste 0 -- -- 57
2020-06-22 15:00:00 21.9 24 Nordeste 33 Nordeste 0 -- -- 62
2020-06-22 14:00:00 21.5 19 Nordeste 34 Nordeste 0 -- -- 59
2020-06-22 13:00:00 20.6 18 Nordeste 34 Nordeste 0 -- -- 64
2020-06-22 12:00:00 19.1 26 Nordeste 37 Nordeste 0 -- -- 67
2020-06-22 11:00:00 18.4 20 Nordeste 38 Este 0 -- -- 70
2020-06-22 10:00:00 17.8 18 Nordeste 33 Nordeste 0 -- -- 71
2020-06-22 09:00:00 16.5 17 Nordeste 42 Nordeste 0 -- -- 75
2020-06-22 08:00:00 15.3 14 Nordeste 31 Nordeste 0 -- -- 81
2020-06-22 07:00:00 15.2 15 Nordeste 28 Nordeste 0 -- -- 79
2020-06-22 06:00:00 15.2 10 Este 40 Nordeste 0 -- -- 75
2020-06-22 05:00:00 14.4 14 Este 37 Nordeste 0 -- -- 73
2020-06-22 04:00:00 14.9 29 Nordeste 44 Nordeste 0 -- -- 70
2020-06-22 03:00:00 15.3 24 Nordeste 37 Nordeste 0 -- -- 68
2020-06-22 02:00:00 15.4 17 Nordeste 43 Nordeste 0 -- -- 67
2020-06-22 01:00:00 15.5 19 Nordeste 36 Nordeste 0 -- -- 69
2020-06-22 00:00:00 15.9 15 Nordeste 44 Nordeste 0 -- -- 70
2020-06-21 23:00:00 16.4 21 Nordeste 40 Nordeste 0 -- -- 70
2020-06-21 22:00:00 17.2 22 Nordeste 43 Nordeste 0 -- -- 70
2020-06-21 21:00:00 18.7 21 Nordeste 37 Nordeste 0 -- -- 68
2020-06-21 20:00:00 20.2 22 Nordeste 41 Nordeste 0 -- -- 62
2020-06-21 19:00:00 21.2 24 Nordeste 38 Nordeste 0 -- -- 54
2020-06-21 18:00:00 22.3 21 Nordeste 44 Nordeste 0 -- -- 45
2020-06-21 17:00:00 23.1 15 Nordeste 35 Nordeste 0 -- -- 46
2020-06-21 16:00:00 23.1 20 Nordeste 33 Nordeste 0 -- -- 46
2020-06-21 15:00:00 23.1 20 Nordeste 35 Nordeste 0 -- -- 50
2020-06-21 14:00:00 23.6 16 Nordeste 26 Nordeste 0 -- -- 51
2020-06-21 13:00:00 23.8 15 Nordeste 24 Nordeste 0 -- -- 49
2020-06-21 12:00:00 23.3 10 Nordeste 22 Norte 0 -- -- 49
2020-06-21 11:00:00 21.6 13 Nordeste 24 Este 0 -- -- 54
2020-06-21 10:00:00 19.9 14 Nordeste 26 Nordeste 0 -- -- 59
2020-06-21 09:00:00 16.6 3 Sudeste 10 Norte 0 -- -- 73
2020-06-21 08:00:00 11.5 0 Calma 6 Sudeste 0 -- -- 96
2020-06-21 07:00:00 10.3 2 Sudeste 13 Norte 0 -- -- 93
2020-06-21 06:00:00 10.9 4 Nordeste 15 Norte 0 -- -- 93
2020-06-21 05:00:00 11.3 3 Norte 12 Nordeste 0 -- -- 93
2020-06-21 04:00:00 12.1 2 Nordeste 8 Nordeste 0 -- -- 88
2020-06-21 03:00:00 13.1 2 Este 24 Norte 0 -- -- 88
2020-06-21 02:00:00 14.1 6 Nordeste 22 Este 0 -- -- 87
2020-06-21 01:00:00 16.4 15 Nordeste 29 Nordeste 0 -- -- 77
2020-06-21 00:00:00 16.7 20 Nordeste 34 Nordeste 0 -- -- 78
2020-06-20 23:00:00 17.5 18 Nordeste 28 Este 0 -- -- 73
2020-06-20 22:00:00 18.1 18 Nordeste 31 Nordeste 0 -- -- 71
2020-06-20 21:00:00 19.7 19 Nordeste 29 Nordeste 0 -- -- 70
2020-06-20 20:00:00 21.1 19 Nordeste 29 Nordeste 0 -- -- 64
2020-06-20 19:00:00 22.5 17 Nordeste 27 Nordeste 0 -- -- 64
2020-06-20 18:00:00 23.6 19 Nordeste 32 Este 0 -- -- 60
2020-06-20 17:00:00 24.5 12 Nordeste 26 Este 0 -- -- 56
2020-06-20 16:00:00 24.4 4 Norte 22 Sudoeste 0 -- -- 51
2020-06-20 15:00:00 25.7 10 Sudoeste 19 Sudoeste 0 -- -- 49
2020-06-20 14:00:00 24.5 12 Sudoeste 24 Sudoeste 0 -- -- 56
2020-06-20 13:00:00 23.2 16 Sudoeste 24 Oeste 0 -- -- 60
2020-06-20 12:00:00 21.8 13 Sudoeste 19 Sudoeste 0 -- -- 62
2020-06-20 11:00:00 19.2 4 Sudeste 8 Este 0 -- -- 65
2020-06-20 10:00:00 16.2 3 Este 8 Este 0 -- -- 77
2020-06-20 09:00:00 12.2 0 Calma 2 Este 0 -- -- 92
2020-06-20 08:00:00 10 0 Calma 3 Este 0 -- -- 98
2020-06-20 07:00:00 8.9 0 Calma 3 Sudoeste 0 -- -- 96
2020-06-20 06:00:00 9.2 0 Calma 4 Sudoeste 0 -- -- 95
2020-06-20 05:00:00 10 0 Calma 4 Norte 0 -- -- 94
2020-06-20 04:00:00 10.8 0 Calma 5 Nordeste 0 -- -- 92
2020-06-20 03:00:00 12.1 5 Oeste 21 Nordeste 0 -- -- 87
2020-06-20 02:00:00 13.9 12 Nordeste 27 Nordeste 0 -- -- 84
2020-06-20 01:00:00 14.1 11 Este 28 Este 0 -- -- 85
2020-06-20 00:00:00 14 8 Nordeste 18 Nordeste 0 -- -- 88
2020-06-19 23:00:00 14.8 7 Nordeste 26 Nordeste 0 -- -- 85
2020-06-19 22:00:00 15.6 9 Nordeste 29 Nordeste 0 -- -- 81
2020-06-19 21:00:00 17 23 Nordeste 35 Nordeste 0 -- -- 75
2020-06-19 20:00:00 18 26 Nordeste 35 Nordeste 0 -- -- 72
2020-06-19 19:00:00 19.1 26 Nordeste 35 Nordeste 0 -- -- 70
2020-06-19 18:00:00 20 24 Nordeste 33 Nordeste 0 -- -- 69
2020-06-19 17:00:00 21.3 17 Nordeste 27 Nordeste 0 -- -- 65
2020-06-19 16:00:00 23.3 8 Sudeste 22 Sudoeste 0 -- -- 55
2020-06-19 15:00:00 24 11 Sudoeste 24 Sudoeste 0 -- -- 50
2020-06-19 14:00:00 22.8 13 Oeste 23 Sudoeste 0 -- -- 56
2020-06-19 13:00:00 21.4 13 Sudoeste 19 Sudoeste 0 -- -- 59
2020-06-19 12:00:00 19 8 Oeste 14 Sudoeste 0 -- -- 58
2020-06-19 11:00:00 17 0 Calma 7 Oeste 0 -- -- 66
2020-06-19 10:00:00 14.1 3 Sur 14 Norte 0 -- -- 71
2020-06-19 09:00:00 10.5 2 Sudeste 6 Noroeste 0 -- -- 89
2020-06-19 08:00:00 7.8 0 Calma 4 Oeste 0 -- -- 97
2020-06-19 07:00:00 6.6 0 Calma 4 Noroeste 0 -- -- 95
2020-06-19 06:00:00 7.2 0 Calma 15 Nordeste 0 -- -- 93
2020-06-19 05:00:00 7.6 4 Nordeste 18 Nordeste 0 -- -- 94
2020-06-19 04:00:00 7.9 0 Calma 21 Nordeste 0 -- -- 94
2020-06-19 03:00:00 8.5 0 Calma 9 Nordeste 0 -- -- 94
2020-06-19 02:00:00 9.5 2 Este 5 Oeste 0 -- -- 91
2020-06-19 01:00:00 10.7 0 Calma 9 Nordeste 0 -- -- 88
2020-06-19 00:00:00 11.8 3 Nordeste 23 Nordeste 0 -- -- 84
2020-06-18 23:00:00 12.6 14 Nordeste 23 Nordeste 0 -- -- 82
2020-06-18 22:00:00 13.3 7 Nordeste 30 Este 0 -- -- 79
2020-06-18 21:00:00 14.9 21 Nordeste 33 Nordeste 0 -- -- 71
2020-06-18 20:00:00 16.4 22 Nordeste 36 Nordeste 0 -- -- 65
2020-06-18 19:00:00 17.9 14 Nordeste 26 Nordeste 0 -- -- 63
2020-06-18 18:00:00 18.4 13 Nordeste 31 Nordeste 0 -- -- 61
2020-06-18 17:00:00 18.4 13 Nordeste 23 Nordeste 0 -- -- 61
2020-06-18 16:00:00 19.2 12 Nordeste 18 Nordeste 0 -- -- 58
2020-06-18 15:00:00 18.3 11 Nordeste 16 Nordeste 0 -- -- 60
2020-06-18 14:00:00 19.1 5 Noroeste 13 Oeste 0 -- -- 58
2020-06-18 13:00:00 17.7 4 Oeste 14 Oeste 0 -- -- 58
2020-06-18 12:00:00 15.2 3 Sudeste 8 Sudeste 0 -- -- 75
2020-06-18 11:00:00 12.7 0 Calma 8 Nordeste 0 -- -- 87
2020-06-18 10:00:00 10.4 4 Este 6 Sudeste 0.2 -- -- 93
2020-06-18 09:00:00 9.7 2 Noroeste 15 Norte 3.2 -- -- 94
2020-06-18 08:00:00 10.1 14 Sudeste 33 Sudeste 0.4 -- -- 88
2020-06-18 07:00:00 9.3 8 Este 16 Noroeste 0 -- -- 93
2020-06-18 06:00:00 8.2 2 Este 10 Norte 0 -- -- 95
2020-06-18 05:00:00 7.7 2 Sur 7 Oeste 0 -- -- 95
2020-06-18 04:00:00 8.2 0 Calma 5 Sudoeste 0 -- -- 94
2020-06-18 03:00:00 8.7 2 Este 5 Este 0 -- -- 93
2020-06-18 02:00:00 9.2 0 Calma 10 Sudoeste 0 -- -- 90
2020-06-18 01:00:00 10.4 4 Nordeste 20 Nordeste 0 -- -- 84
2020-06-18 00:00:00 11.3 6 Nordeste 25 Nordeste 0 -- -- 81
2020-06-17 23:00:00 11.9 5 Nordeste 18 Nordeste 0 -- -- 79
2020-06-17 22:00:00 12.6 10 Nordeste 21 Nordeste 0 -- -- 76
2020-06-17 21:00:00 13.1 13 Nordeste 30 Norte 0 -- -- 73
2020-06-17 20:00:00 15.5 10 Nordeste 27 Norte 0 -- -- 65
2020-06-17 19:00:00 16.2 16 Nordeste 31 Nordeste 0 -- -- 65
2020-06-17 18:00:00 16.3 15 Nordeste 26 Nordeste 0 -- -- 62
2020-06-17 17:00:00 15.8 15 Norte 27 Nordeste 0 -- -- 67
2020-06-17 16:00:00 17 12 Este 25 Nordeste 0 -- -- 61
2020-06-17 15:00:00 16.7 17 Nordeste 28 Nordeste 0 -- -- 62
2020-06-17 14:00:00 17.3 11 Nordeste 22 Este 0 -- -- 60
2020-06-17 13:00:00 15.2 2 Este 19 Noroeste 0 -- -- 66
2020-06-17 12:00:00 15.5 10 Noroeste 26 Norte 0 -- -- 66
2020-06-17 11:00:00 14.4 6 Noroeste 19 Norte 0 -- -- 67
2020-06-17 10:00:00 13.4 5 Sudoeste 12 Sudoeste 0 -- -- 72
2020-06-17 09:00:00 11.9 3 Este 5 Este 0 -- -- 84
2020-06-17 08:00:00 10.3 0 Calma 5 Este 0 -- -- 93
2020-06-17 07:00:00 9.5 0 Calma 4 Oeste 0 -- -- 94
2020-06-17 06:00:00 9.4 4 Este 6 Nordeste 0 -- -- 94
2020-06-17 05:00:00 9.4 5 Sur 10 Sur 0 -- -- 92
2020-06-17 04:00:00 9.5 5 Norte 10 Este 0 -- -- 90
2020-06-17 03:00:00 9.6 3 Oeste 12 Este 0 -- -- 90
2020-06-17 02:00:00 9.9 0 Calma 12 Noroeste 0 -- -- 88
2020-06-17 01:00:00 10.5 4 Norte 18 Este 0 -- -- 85
2020-06-17 00:00:00 11.7 12 Este 30 Este 0 -- -- 78
2020-06-16 23:00:00 12.2 18 Sudeste 29 Sudeste 0 -- -- 77
2020-06-16 22:00:00 12.4 13 Este 26 Este 0 -- -- 78
2020-06-16 21:00:00 12.7 15 Nordeste 30 Nordeste 0.2 -- -- 84
2020-06-16 20:00:00 15.3 10 Nordeste 22 Nordeste 0 -- -- 74
2020-06-16 19:00:00 15.6 8 Nordeste 21 Nordeste 0 -- -- 69
2020-06-16 18:00:00 15.9 14 Nordeste 25 Nordeste 0 -- -- 69
2020-06-16 17:00:00 13.7 10 Nordeste 24 Este 1.2 -- -- 85
2020-06-16 16:00:00 12.9 8 Este 33 Nordeste 0.6 -- -- 79
2020-06-16 15:00:00 18.6 16 Nordeste 28 Nordeste 0 -- -- 58
2020-06-16 14:00:00 17.6 13 Nordeste 23 Nordeste 0 -- -- 60
2020-06-16 13:00:00 17.9 6 Nordeste 18 Nordeste 0 -- -- 61
2020-06-16 12:00:00 18.6 5 Nordeste 13 Nordeste 0 -- -- 59
2020-06-16 11:00:00 16.1 9 Nordeste 21 Nordeste 0 -- -- 67
2020-06-16 10:00:00 14.5 12 Nordeste 17 Nordeste 0 -- -- 73
2020-06-16 09:00:00 13.1 8 Nordeste 14 Nordeste 0 -- -- 77
2020-06-16 08:00:00 12.3 6 Este 21 Nordeste 0 -- -- 79
2020-06-16 07:00:00 11.9 8 Nordeste 18 Nordeste 0 -- -- 79
2020-06-16 06:00:00 12.1 9 Este 28 Nordeste 0 -- -- 77
2020-06-16 05:00:00 12.3 13 Nordeste 22 Este 0 -- -- 77
2020-06-16 04:00:00 12.3 6 Este 22 Este 0 -- -- 76
2020-06-16 03:00:00 12.6 12 Este 27 Nordeste 0 -- -- 74
2020-06-16 02:00:00 12.6 9 Este 28 Nordeste 0 -- -- 74
2020-06-16 01:00:00 12.8 13 Nordeste 24 Nordeste 0 -- -- 74
2020-06-16 00:00:00 13.1 13 Este 36 Nordeste 0 -- -- 75
2020-06-15 23:00:00 13.9 23 Nordeste 39 Nordeste 0 -- -- 75
2020-06-15 22:00:00 14.3 20 Nordeste 37 Nordeste 0 -- -- 73
2020-06-15 21:00:00 15 19 Nordeste 35 Nordeste 0 -- -- 73
2020-06-15 20:00:00 15.8 20 Nordeste 32 Nordeste 0 -- -- 72
2020-06-15 19:00:00 17.5 16 Nordeste 29 Nordeste 0 -- -- 68
2020-06-15 18:00:00 19.2 17 Nordeste 25 Nordeste 0 -- -- 61
2020-06-15 17:00:00 19.4 11 Nordeste 22 Nordeste 0 -- -- 59
2020-06-15 16:00:00 19.6 10 Nordeste 27 Nordeste 0 -- -- 61
2020-06-15 15:00:00 20.6 8 Noroeste 23 Sudoeste 0 -- -- 55
2020-06-15 14:00:00 19.6 12 Sudoeste 22 Sudoeste 0 -- -- 57
2020-06-15 13:00:00 19.2 8 Sudoeste 22 Sudoeste 0 -- -- 58
2020-06-15 12:00:00 18.5 8 Sudoeste 14 Oeste 0 -- -- 61
2020-06-15 11:00:00 17.2 3 Sudeste 15 Nordeste 0 -- -- 64
2020-06-15 10:00:00 15.4 10 Nordeste 16 Nordeste 0 -- -- 69
2020-06-15 09:00:00 13.5 8 Nordeste 13 Nordeste 0 -- -- 74
2020-06-15 08:00:00 11.2 0 Calma 3 Sudeste 0 -- -- 89
2020-06-15 07:00:00 10.8 0 Calma 6 Nordeste 0 -- -- 88
2020-06-15 06:00:00 11.4 6 Este 21 Este 0 -- -- 79
2020-06-15 05:00:00 12.1 10 Este 21 Norte 0 -- -- 74
2020-06-15 04:00:00 12 9 Este 20 Este 0 -- -- 75
2020-06-15 03:00:00 11.9 9 Este 21 Nordeste 0 -- -- 74
2020-06-15 02:00:00 11.7 6 Este 24 Este 0 -- -- 78
2020-06-15 01:00:00 12.4 13 Este 27 Este 0 -- -- 78
2020-06-15 00:00:00 13.2 15 Nordeste 36 Nordeste 0 -- -- 73